sensor_id;sensor_type;location;lat;lon;timestamp;pressure;altitude;pressure_sealevel;temperature;humidity
7111;BME280;3597;42.650;23.386;2024-03-25T00:02:00;94911.00;;;7.63;72.17
7111;BME280;3597;42.650;23.386;2024-03-25T00:04:25;94922.09;;;7.44;73.75
7111;BME280;3597;42.650;23.386;2024-03-25T00:06:51;94903.06;;;7.18;73.90
7111;BME280;3597;42.650;23.386;2024-03-25T00:09:17;94894.34;;;6.89;75.93
7111;BME280;3597;42.650;23.386;2024-03-25T00:11:43;94919.25;;;6.78;76.98
7111;BME280;3597;42.650;23.386;2024-03-25T00:14:09;94895.19;;;6.45;77.91
7111;BME280;3597;42.650;23.386;2024-03-25T00:16:35;94927.03;;;6.70;77.97
7111;BME280;3597;42.650;23.386;2024-03-25T00:19:00;94925.56;;;6.40;78.88
7111;BME280;3597;42.650;23.386;2024-03-25T00:21:27;94928.00;;;6.38;78.15
7111;BME280;3597;42.650;23.386;2024-03-25T00:23:52;94943.34;;;6.32;78.40
7111;BME280;3597;42.650;23.386;2024-03-25T00:26:18;94921.47;;;6.15;78.64
7111;BME280;3597;42.650;23.386;2024-03-25T00:28:44;94918.47;;;6.13;78.94
7111;BME280;3597;42.650;23.386;2024-03-25T00:31:10;94918.94;;;5.97;80.20
7111;BME280;3597;42.650;23.386;2024-03-25T00:33:35;94890.78;;;5.74;80.15
7111;BME280;3597;42.650;23.386;2024-03-25T00:36:01;94911.16;;;5.60;80.12
7111;BME280;3597;42.650;23.386;2024-03-25T00:38:27;94911.03;;;5.55;80.74
7111;BME280;3597;42.650;23.386;2024-03-25T00:40:52;94901.94;;;5.52;81.44
7111;BME280;3597;42.650;23.386;2024-03-25T00:43:18;94910.25;;;5.78;81.06
7111;BME280;3597;42.650;23.386;2024-03-25T00:45:45;94882.59;;;5.68;80.74
7111;BME280;3597;42.650;23.386;2024-03-25T00:48:11;94904.94;;;5.84;80.65
7111;BME280;3597;42.650;23.386;2024-03-25T00:50:37;94914.53;;;5.85;80.25
7111;BME280;3597;42.650;23.386;2024-03-25T00:53:03;94915.50;;;5.96;80.25
7111;BME280;3597;42.650;23.386;2024-03-25T00:55:28;94893.47;;;5.74;78.59
7111;BME280;3597;42.650;23.386;2024-03-25T00:57:54;94902.97;;;5.69;79.45
7111;BME280;3597;42.650;23.386;2024-03-25T01:00:20;94912.75;;;5.67;78.81
7111;BME280;3597;42.650;23.386;2024-03-25T01:02:46;94928.19;;;5.66;79.58
7111;BME280;3597;42.650;23.386;2024-03-25T01:05:12;94933.28;;;5.64;79.90
7111;BME280;3597;42.650;23.386;2024-03-25T01:07:38;94910.59;;;5.32;79.16
7111;BME280;3597;42.650;23.386;2024-03-25T01:10:04;94938.66;;;5.50;80.55
7111;BME280;3597;42.650;23.386;2024-03-25T01:12:31;94938.09;;;5.46;80.94
7111;BME280;3597;42.650;23.386;2024-03-25T01:14:57;94898.69;;;5.24;80.42
7111;BME280;3597;42.650;23.386;2024-03-25T01:17:23;94929.53;;;5.47;80.32
7111;BME280;3597;42.650;23.386;2024-03-25T01:19:48;94928.66;;;5.65;80.36
7111;BME280;3597;42.650;23.386;2024-03-25T01:22:14;94905.81;;;5.51;80.38
7111;BME280;3597;42.650;23.386;2024-03-25T01:24:39;94870.69;;;5.37;78.71
7111;BME280;3597;42.650;23.386;2024-03-25T01:27:05;94910.78;;;5.67;78.97
7111;BME280;3597;42.650;23.386;2024-03-25T01:29:31;94883.06;;;5.28;78.37
7111;BME280;3597;42.650;23.386;2024-03-25T01:31:58;94884.06;;;5.16;78.44
7111;BME280;3597;42.650;23.386;2024-03-25T01:34:25;94871.34;;;4.93;77.98
7111;BME280;3597;42.650;23.386;2024-03-25T01:36:51;94879.28;;;4.87;79.24
7111;BME280;3597;42.650;23.386;2024-03-25T01:39:18;94877.69;;;4.81;79.29
7111;BME280;3597;42.650;23.386;2024-03-25T01:41:43;94902.66;;;4.90;78.76
7111;BME280;3597;42.650;23.386;2024-03-25T01:44:09;94896.59;;;4.72;78.75
7111;BME280;3597;42.650;23.386;2024-03-25T01:46:35;94883.41;;;4.74;80.88
7111;BME280;3597;42.650;23.386;2024-03-25T01:49:01;94862.91;;;4.76;80.13
7111;BME280;3597;42.650;23.386;2024-03-25T01:51:27;94876.03;;;4.83;80.45
7111;BME280;3597;42.650;23.386;2024-03-25T01:53:54;94883.88;;;4.96;79.82
7111;BME280;3597;42.650;23.386;2024-03-25T01:56:21;94877.00;;;4.95;77.75
7111;BME280;3597;42.650;23.386;2024-03-25T01:58:48;94882.69;;;4.97;77.65
7111;BME280;3597;42.650;23.386;2024-03-25T02:01:14;94884.22;;;4.89;78.94
7111;BME280;3597;42.650;23.386;2024-03-25T02:03:42;94889.31;;;4.87;78.88
7111;BME280;3597;42.650;23.386;2024-03-25T02:06:12;94862.22;;;4.67;77.35
7111;BME280;3597;42.650;23.386;2024-03-25T02:08:41;94878.53;;;4.63;76.76
7111;BME280;3597;42.650;23.386;2024-03-25T02:11:08;94905.53;;;4.78;77.51
7111;BME280;3597;42.650;23.386;2024-03-25T02:13:37;94883.84;;;4.48;78.18
7111;BME280;3597;42.650;23.386;2024-03-25T02:16:04;94886.31;;;4.61;77.70
7111;BME280;3597;42.650;23.386;2024-03-25T02:18:30;94883.16;;;4.63;78.70
7111;BME280;3597;42.650;23.386;2024-03-25T02:20:59;94910.06;;;4.72;77.49
7111;BME280;3597;42.650;23.386;2024-03-25T02:23:25;94893.13;;;4.47;77.42
7111;BME280;3597;42.650;23.386;2024-03-25T02:25:51;94858.69;;;4.09;78.56
7111;BME280;3597;42.650;23.386;2024-03-25T02:28:18;94912.13;;;4.44;78.61
7111;BME280;3597;42.650;23.386;2024-03-25T02:30:43;94913.03;;;4.50;79.96
7111;BME280;3597;42.650;23.386;2024-03-25T02:33:09;94887.66;;;4.33;78.91
7111;BME280;3597;42.650;23.386;2024-03-25T02:35:36;94891.03;;;4.42;78.56
7111;BME280;3597;42.650;23.386;2024-03-25T02:38:02;94869.09;;;4.26;80.70
7111;BME280;3597;42.650;23.386;2024-03-25T02:40:29;94894.03;;;4.44;79.86
7111;BME280;3597;42.650;23.386;2024-03-25T02:42:55;94896.97;;;4.55;79.18
7111;BME280;3597;42.650;23.386;2024-03-25T02:45:21;94896.66;;;4.63;79.33
7111;BME280;3597;42.650;23.386;2024-03-25T02:47:47;94928.09;;;4.89;78.07
7111;BME280;3597;42.650;23.386;2024-03-25T02:50:12;94913.94;;;4.80;79.27
7111;BME280;3597;42.650;23.386;2024-03-25T02:52:38;94911.19;;;4.89;78.51
7111;BME280;3597;42.650;23.386;2024-03-25T02:55:04;94896.66;;;4.86;78.23
7111;BME280;3597;42.650;23.386;2024-03-25T02:57:29;94913.84;;;4.98;78.38
7111;BME280;3597;42.650;23.386;2024-03-25T02:59:55;94928.25;;;5.19;78.24
7111;BME280;3597;42.650;23.386;2024-03-25T03:02:20;94916.97;;;4.97;78.31
7111;BME280;3597;42.650;23.386;2024-03-25T03:04:46;94933.66;;;4.86;78.96
7111;BME280;3597;42.650;23.386;2024-03-25T03:07:12;94915.13;;;4.79;79.42
7111;BME280;3597;42.650;23.386;2024-03-25T03:09:37;94915.09;;;4.55;78.73
7111;BME280;3597;42.650;23.386;2024-03-25T03:12:03;94909.28;;;4.47;79.50
7111;BME280;3597;42.650;23.386;2024-03-25T03:14:29;94903.03;;;4.41;79.08
7111;BME280;3597;42.650;23.386;2024-03-25T03:16:54;94917.25;;;4.42;80.03
7111;BME280;3597;42.650;23.386;2024-03-25T03:19:26;94914.41;;;4.36;79.72
7111;BME280;3597;42.650;23.386;2024-03-25T03:21:53;94920.97;;;4.44;79.41
7111;BME280;3597;42.650;23.386;2024-03-25T03:24:19;94936.94;;;4.57;80.43
7111;BME280;3597;42.650;23.386;2024-03-25T03:26:44;94910.03;;;4.48;80.13
7111;BME280;3597;42.650;23.386;2024-03-25T03:29:11;94905.31;;;4.34;79.41
7111;BME280;3597;42.650;23.386;2024-03-25T03:31:37;94893.91;;;4.39;79.18
7111;BME280;3597;42.650;23.386;2024-03-25T03:34:03;94931.38;;;4.61;79.38
7111;BME280;3597;42.650;23.386;2024-03-25T03:36:28;94911.81;;;4.51;79.17
7111;BME280;3597;42.650;23.386;2024-03-25T03:38:54;94900.97;;;4.27;78.11
7111;BME280;3597;42.650;23.386;2024-03-25T03:41:20;94946.94;;;4.66;78.17
7111;BME280;3597;42.650;23.386;2024-03-25T03:43:46;94954.44;;;4.62;79.14
7111;BME280;3597;42.650;23.386;2024-03-25T03:46:12;94963.41;;;4.68;79.12
7111;BME280;3597;42.650;23.386;2024-03-25T03:48:37;94878.88;;;4.14;79.00
7111;BME280;3597;42.650;23.386;2024-03-25T03:51:04;94955.13;;;4.71;79.07
7111;BME280;3597;42.650;23.386;2024-03-25T03:53:32;94964.34;;;4.88;78.50
7111;BME280;3597;42.650;23.386;2024-03-25T03:56:02;94973.81;;;4.84;78.77
7111;BME280;3597;42.650;23.386;2024-03-25T03:58:29;94939.31;;;4.64;77.82
7111;BME280;3597;42.650;23.386;2024-03-25T04:00:55;94943.03;;;4.67;78.17
7111;BME280;3597;42.650;23.386;2024-03-25T04:03:21;94978.28;;;4.87;78.23
7111;BME280;3597;42.650;23.386;2024-03-25T04:05:47;94976.50;;;4.84;78.40
7111;BME280;3597;42.650;23.386;2024-03-25T04:08:12;94938.44;;;4.58;77.63
7111;BME280;3597;42.650;23.386;2024-03-25T04:10:38;94960.94;;;4.79;77.51
7111;BME280;3597;42.650;23.386;2024-03-25T04:13:06;94985.19;;;4.79;77.76
7111;BME280;3597;42.650;23.386;2024-03-25T04:15:35;94961.00;;;4.61;77.66
7111;BME280;3597;42.650;23.386;2024-03-25T04:18:01;94972.81;;;4.72;76.81
7111;BME280;3597;42.650;23.386;2024-03-25T04:20:32;94981.78;;;4.69;77.15
7111;BME280;3597;42.650;23.386;2024-03-25T04:23:01;94980.47;;;4.65;78.29
7111;BME280;3597;42.650;23.386;2024-03-25T04:25:26;94953.88;;;4.48;77.63
7111;BME280;3597;42.650;23.386;2024-03-25T04:27:52;94993.66;;;4.63;78.00
7111;BME280;3597;42.650;23.386;2024-03-25T04:30:17;95004.53;;;4.68;77.45
7111;BME280;3597;42.650;23.386;2024-03-25T04:32:45;94970.91;;;4.54;77.06
7111;BME280;3597;42.650;23.386;2024-03-25T04:35:10;94983.63;;;4.54;77.43
7111;BME280;3597;42.650;23.386;2024-03-25T04:37:36;94988.09;;;4.66;77.12
7111;BME280;3597;42.650;23.386;2024-03-25T04:40:02;94995.44;;;4.66;76.99
7111;BME280;3597;42.650;23.386;2024-03-25T04:42:28;94985.00;;;4.49;77.16
7111;BME280;3597;42.650;23.386;2024-03-25T04:44:54;95005.78;;;4.67;76.83
7111;BME280;3597;42.650;23.386;2024-03-25T04:47:19;95006.06;;;4.60;76.42
7111;BME280;3597;42.650;23.386;2024-03-25T04:49:45;94982.03;;;4.38;77.68
7111;BME280;3597;42.650;23.386;2024-03-25T04:52:14;94981.59;;;4.40;76.33
7111;BME280;3597;42.650;23.386;2024-03-25T04:54:48;95022.72;;;4.59;77.13
7111;BME280;3597;42.650;23.386;2024-03-25T04:57:14;95020.59;;;4.63;77.81
7111;BME280;3597;42.650;23.386;2024-03-25T04:59:39;95003.56;;;4.47;77.83
7111;BME280;3597;42.650;23.386;2024-03-25T05:02:05;95011.06;;;4.43;77.15
7111;BME280;3597;42.650;23.386;2024-03-25T05:04:30;95000.28;;;4.34;77.34
7111;BME280;3597;42.650;23.386;2024-03-25T05:06:56;95023.31;;;4.44;76.41
7111;BME280;3597;42.650;23.386;2024-03-25T05:09:21;95033.50;;;4.49;76.29
7111;BME280;3597;42.650;23.386;2024-03-25T05:11:47;95024.25;;;4.41;77.07
7111;BME280;3597;42.650;23.386;2024-03-25T05:14:13;95023.31;;;4.44;76.74
7111;BME280;3597;42.650;23.386;2024-03-25T05:16:38;94976.69;;;4.20;76.07
7111;BME280;3597;42.650;23.386;2024-03-25T05:19:03;95027.50;;;4.54;76.79
7111;BME280;3597;42.650;23.386;2024-03-25T05:21:32;95010.31;;;4.43;75.97
7111;BME280;3597;42.650;23.386;2024-03-25T05:23:58;95019.59;;;4.42;75.99
7111;BME280;3597;42.650;23.386;2024-03-25T05:26:24;95037.09;;;4.46;75.78
7111;BME280;3597;42.650;23.386;2024-03-25T05:28:54;95040.22;;;4.45;76.07
7111;BME280;3597;42.650;23.386;2024-03-25T05:31:20;95037.09;;;4.37;76.21
7111;BME280;3597;42.650;23.386;2024-03-25T05:33:45;95031.88;;;4.34;75.85
7111;BME280;3597;42.650;23.386;2024-03-25T05:36:11;95015.28;;;4.26;75.19
7111;BME280;3597;42.650;23.386;2024-03-25T05:38:36;95038.19;;;4.22;75.66
7111;BME280;3597;42.650;23.386;2024-03-25T05:41:02;95049.25;;;4.33;74.48
7111;BME280;3597;42.650;23.386;2024-03-25T05:43:28;95024.41;;;4.10;75.55
7111;BME280;3597;42.650;23.386;2024-03-25T05:45:53;95063.41;;;4.42;75.01
7111;BME280;3597;42.650;23.386;2024-03-25T05:48:20;95064.34;;;4.39;75.12
7111;BME280;3597;42.650;23.386;2024-03-25T05:50:45;95032.34;;;4.23;74.27
7111;BME280;3597;42.650;23.386;2024-03-25T05:53:11;95065.97;;;4.37;74.79
7111;BME280;3597;42.650;23.386;2024-03-25T05:55:37;95057.31;;;4.33;74.13
7111;BME280;3597;42.650;23.386;2024-03-25T05:58:02;95060.78;;;4.24;73.77
7111;BME280;3597;42.650;23.386;2024-03-25T06:00:30;95085.13;;;4.48;74.10
7111;BME280;3597;42.650;23.386;2024-03-25T06:02:56;95066.28;;;4.30;74.42
7111;BME280;3597;42.650;23.386;2024-03-25T06:05:22;95060.31;;;4.26;74.43
7111;BME280;3597;42.650;23.386;2024-03-25T06:07:47;95064.66;;;4.23;74.24
7111;BME280;3597;42.650;23.386;2024-03-25T06:10:13;95095.31;;;4.44;74.24
7111;BME280;3597;42.650;23.386;2024-03-25T06:12:39;95086.34;;;4.38;74.44
7111;BME280;3597;42.650;23.386;2024-03-25T06:15:05;95085.44;;;4.41;74.45
7111;BME280;3597;42.650;23.386;2024-03-25T06:17:31;95119.72;;;4.49;73.35
7111;BME280;3597;42.650;23.386;2024-03-25T06:19:57;95091.88;;;4.34;73.77
7111;BME280;3597;42.650;23.386;2024-03-25T06:22:23;95093.97;;;4.30;74.37
7111;BME280;3597;42.650;23.386;2024-03-25T06:24:49;95119.41;;;4.47;73.25
7111;BME280;3597;42.650;23.386;2024-03-25T06:27:16;95128.81;;;4.52;73.49
7111;BME280;3597;42.650;23.386;2024-03-25T06:29:42;95127.03;;;4.49;72.54
7111;BME280;3597;42.650;23.386;2024-03-25T06:32:09;95115.22;;;4.37;73.38
7111;BME280;3597;42.650;23.386;2024-03-25T06:34:53;95132.44;;;4.49;73.01
7111;BME280;3597;42.650;23.386;2024-03-25T06:37:18;95148.44;;;4.52;73.08
7111;BME280;3597;42.650;23.386;2024-03-25T06:39:44;95113.41;;;4.34;72.89
7111;BME280;3597;42.650;23.386;2024-03-25T06:42:09;95125.84;;;4.41;73.88
7111;BME280;3597;42.650;23.386;2024-03-25T06:44:35;95122.72;;;4.33;72.88
7111;BME280;3597;42.650;23.386;2024-03-25T06:47:01;95150.38;;;4.52;72.60
7111;BME280;3597;42.650;23.386;2024-03-25T06:49:26;95160.13;;;4.49;73.75
7111;BME280;3597;42.650;23.386;2024-03-25T06:51:52;95150.22;;;4.37;73.35
7111;BME280;3597;42.650;23.386;2024-03-25T06:54:18;95139.44;;;4.28;72.51
7111;BME280;3597;42.650;23.386;2024-03-25T06:56:43;95161.91;;;4.43;73.29
7111;BME280;3597;42.650;23.386;2024-03-25T06:59:09;95186.75;;;4.56;73.34
7111;BME280;3597;42.650;23.386;2024-03-25T07:01:34;95171.78;;;4.46;73.02
7111;BME280;3597;42.650;23.386;2024-03-25T07:04:00;95174.91;;;4.45;73.02
7111;BME280;3597;42.650;23.386;2024-03-25T07:06:26;95169.41;;;4.48;72.82
7111;BME280;3597;42.650;23.386;2024-03-25T07:08:52;95172.84;;;4.58;72.13
7111;BME280;3597;42.650;23.386;2024-03-25T07:11:17;95161.63;;;4.50;71.81
7111;BME280;3597;42.650;23.386;2024-03-25T07:13:43;95181.06;;;4.54;71.82
7111;BME280;3597;42.650;23.386;2024-03-25T07:16:09;95183.47;;;4.62;72.81
7111;BME280;3597;42.650;23.386;2024-03-25T07:18:34;95186.16;;;4.62;71.83
7111;BME280;3597;42.650;23.386;2024-03-25T07:21:00;95189.16;;;4.64;71.82
7111;BME280;3597;42.650;23.386;2024-03-25T07:23:25;95192.75;;;4.70;71.92
7111;BME280;3597;42.650;23.386;2024-03-25T07:25:51;95207.13;;;4.76;71.59
7111;BME280;3597;42.650;23.386;2024-03-25T07:28:17;95187.34;;;4.70;70.37
7111;BME280;3597;42.650;23.386;2024-03-25T07:30:42;95192.47;;;4.68;70.58
7111;BME280;3597;42.650;23.386;2024-03-25T07:33:08;95205.19;;;4.76;71.29
7111;BME280;3597;42.650;23.386;2024-03-25T07:35:33;95200.69;;;4.82;71.71
7111;BME280;3597;42.650;23.386;2024-03-25T07:38:00;95199.94;;;4.73;70.30
7111;BME280;3597;42.650;23.386;2024-03-25T07:40:27;95192.72;;;4.79;71.65
7111;BME280;3597;42.650;23.386;2024-03-25T07:42:52;95189.00;;;4.76;71.52
7111;BME280;3597;42.650;23.386;2024-03-25T07:45:18;95220.00;;;4.90;70.53
7111;BME280;3597;42.650;23.386;2024-03-25T07:47:43;95191.53;;;4.80;69.51
7111;BME280;3597;42.650;23.386;2024-03-25T07:50:09;95195.28;;;4.82;70.58
7111;BME280;3597;42.650;23.386;2024-03-25T07:52:34;95205.31;;;4.91;70.41
7111;BME280;3597;42.650;23.386;2024-03-25T07:55:06;95196.03;;;4.92;70.85
7111;BME280;3597;42.650;23.386;2024-03-25T07:57:32;95164.16;;;4.63;70.52
7111;BME280;3597;42.650;23.386;2024-03-25T07:59:58;95174.19;;;4.72;70.16
7111;BME280;3597;42.650;23.386;2024-03-25T08:02:24;95196.94;;;4.89;69.77
7111;BME280;3597;42.650;23.386;2024-03-25T08:04:49;95192.72;;;4.97;70.82
7111;BME280;3597;42.650;23.386;2024-03-25T08:07:15;95208.13;;;5.06;70.59
7111;BME280;3597;42.650;23.386;2024-03-25T08:09:40;95190.75;;;5.07;69.54
7111;BME280;3597;42.650;23.386;2024-03-25T08:12:06;95209.94;;;5.18;70.46
7111;BME280;3597;42.650;23.386;2024-03-25T08:14:32;95206.00;;;5.28;69.69
7111;BME280;3597;42.650;23.386;2024-03-25T08:16:58;95196.88;;;5.25;69.99
7111;BME280;3597;42.650;23.386;2024-03-25T08:19:23;95203.13;;;5.41;69.11
7111;BME280;3597;42.650;23.386;2024-03-25T08:21:49;95201.00;;;5.45;69.45
7111;BME280;3597;42.650;23.386;2024-03-25T08:24:15;95203.41;;;5.52;69.35
7111;BME280;3597;42.650;23.386;2024-03-25T08:26:41;95222.41;;;5.57;69.12
7111;BME280;3597;42.650;23.386;2024-03-25T08:29:06;95185.56;;;5.45;69.68
7111;BME280;3597;42.650;23.386;2024-03-25T08:31:32;95195.75;;;5.50;69.43
7111;BME280;3597;42.650;23.386;2024-03-25T08:33:57;95214.44;;;5.63;68.27
7111;BME280;3597;42.650;23.386;2024-03-25T08:36:23;95183.19;;;5.38;68.17
7111;BME280;3597;42.650;23.386;2024-03-25T08:38:49;95226.13;;;5.69;68.40
7111;BME280;3597;42.650;23.386;2024-03-25T08:41:14;95183.78;;;5.42;68.16
7111;BME280;3597;42.650;23.386;2024-03-25T08:43:40;95204.09;;;5.61;69.09
7111;BME280;3597;42.650;23.386;2024-03-25T08:46:06;95199.41;;;5.71;68.21
7111;BME280;3597;42.650;23.386;2024-03-25T08:48:31;95219.16;;;5.95;68.17
7111;BME280;3597;42.650;23.386;2024-03-25T08:50:57;95195.16;;;5.88;68.26
7111;BME280;3597;42.650;23.386;2024-03-25T08:53:22;95174.94;;;5.84;68.32
7111;BME280;3597;42.650;23.386;2024-03-25T08:55:48;95208.50;;;6.25;68.97
7111;BME280;3597;42.650;23.386;2024-03-25T08:58:14;95203.44;;;6.41;68.30
7111;BME280;3597;42.650;23.386;2024-03-25T09:00:41;95186.47;;;6.41;67.59
7111;BME280;3597;42.650;23.386;2024-03-25T09:03:07;95194.31;;;6.77;65.74
7111;BME280;3597;42.650;23.386;2024-03-25T09:05:34;95214.16;;;7.13;66.23
7111;BME280;3597;42.650;23.386;2024-03-25T09:08:00;95194.09;;;7.19;66.68
7111;BME280;3597;42.650;23.386;2024-03-25T09:10:25;95191.56;;;7.16;63.98
7111;BME280;3597;42.650;23.386;2024-03-25T09:13:09;95213.97;;;7.46;62.58
7111;BME280;3597;42.650;23.386;2024-03-25T09:15:35;95219.09;;;7.58;63.83
7111;BME280;3597;42.650;23.386;2024-03-25T09:18:01;95180.69;;;7.75;64.16
7111;BME280;3597;42.650;23.386;2024-03-25T09:20:26;95196.88;;;8.04;61.84
7111;BME280;3597;42.650;23.386;2024-03-25T09:22:52;95198.53;;;8.16;59.09
7111;BME280;3597;42.650;23.386;2024-03-25T09:25:18;95212.31;;;7.98;59.46
7111;BME280;3597;42.650;23.386;2024-03-25T09:27:48;95192.75;;;7.74;59.75
7111;BME280;3597;42.650;23.386;2024-03-25T09:30:14;95204.97;;;7.84;59.91
7111;BME280;3597;42.650;23.386;2024-03-25T09:32:41;95221.09;;;7.93;61.34
7111;BME280;3597;42.650;23.386;2024-03-25T09:35:07;95199.41;;;8.08;61.34
7111;BME280;3597;42.650;23.386;2024-03-25T09:37:32;95201.50;;;8.18;58.62
7111;BME280;3597;42.650;23.386;2024-03-25T09:39:58;95197.69;;;7.90;58.27
7111;BME280;3597;42.650;23.386;2024-03-25T09:42:28;95227.84;;;7.97;58.94
7111;BME280;3597;42.650;23.386;2024-03-25T09:44:59;95215.31;;;7.85;58.69
7111;BME280;3597;42.650;23.386;2024-03-25T09:47:25;95227.47;;;7.90;58.68
7111;BME280;3597;42.650;23.386;2024-03-25T09:49:51;95215.84;;;8.04;59.82
7111;BME280;3597;42.650;23.386;2024-03-25T09:52:19;95210.84;;;8.17;57.95
7111;BME280;3597;42.650;23.386;2024-03-25T09:54:45;95190.91;;;8.00;56.33
7111;BME280;3597;42.650;23.386;2024-03-25T09:57:11;95211.38;;;8.01;56.40
7111;BME280;3597;42.650;23.386;2024-03-25T09:59:37;95209.63;;;7.98;56.81
7111;BME280;3597;42.650;23.386;2024-03-25T10:02:03;95217.19;;;8.29;58.00
7111;BME280;3597;42.650;23.386;2024-03-25T10:04:29;95217.59;;;8.57;56.53
7111;BME280;3597;42.650;23.386;2024-03-25T10:06:55;95212.44;;;8.59;55.55
7111;BME280;3597;42.650;23.386;2024-03-25T10:09:22;95223.06;;;8.62;55.98
7111;BME280;3597;42.650;23.386;2024-03-25T10:11:50;95176.00;;;8.25;55.63
7111;BME280;3597;42.650;23.386;2024-03-25T10:14:16;95225.72;;;8.57;57.05
7111;BME280;3597;42.650;23.386;2024-03-25T10:16:42;95209.19;;;8.75;57.24
7111;BME280;3597;42.650;23.386;2024-03-25T10:19:08;95225.75;;;9.03;54.94
7111;BME280;3597;42.650;23.386;2024-03-25T10:21:34;95213.91;;;9.00;51.63
7111;BME280;3597;42.650;23.386;2024-03-25T10:24:00;95206.91;;;8.94;53.27
7111;BME280;3597;42.650;23.386;2024-03-25T10:26:29;95206.03;;;8.62;53.33
7111;BME280;3597;42.650;23.386;2024-03-25T10:29:00;95202.81;;;8.58;54.38
7111;BME280;3597;42.650;23.386;2024-03-25T10:31:26;95187.06;;;8.42;53.09
7111;BME280;3597;42.650;23.386;2024-03-25T10:33:52;95192.97;;;8.25;54.85
7111;BME280;3597;42.650;23.386;2024-03-25T10:36:20;95196.97;;;8.45;56.00
7111;BME280;3597;42.650;23.386;2024-03-25T10:38:48;95205.50;;;8.78;53.62
7111;BME280;3597;42.650;23.386;2024-03-25T10:41:17;95207.13;;;8.90;52.36
7111;BME280;3597;42.650;23.386;2024-03-25T10:43:47;95204.13;;;8.68;51.65
7111;BME280;3597;42.650;23.386;2024-03-25T10:46:18;95210.44;;;8.80;52.02
7111;BME280;3597;42.650;23.386;2024-03-25T10:48:59;95190.84;;;8.90;51.28
7111;BME280;3597;42.650;23.386;2024-03-25T10:51:26;95186.81;;;9.06;51.01
7111;BME280;3597;42.650;23.386;2024-03-25T10:53:52;95211.88;;;9.21;48.96
7111;BME280;3597;42.650;23.386;2024-03-25T10:56:22;95202.88;;;9.09;50.00
7111;BME280;3597;42.650;23.386;2024-03-25T10:58:49;95221.78;;;9.24;50.23
7111;BME280;3597;42.650;23.386;2024-03-25T11:01:17;95208.69;;;9.23;50.03
7111;BME280;3597;42.650;23.386;2024-03-25T11:03:44;95209.94;;;9.27;47.76
7111;BME280;3597;42.650;23.386;2024-03-25T11:06:10;95200.88;;;9.62;49.15
7111;BME280;3597;42.650;23.386;2024-03-25T11:08:38;95180.50;;;9.46;48.11
7111;BME280;3597;42.650;23.386;2024-03-25T11:11:05;95226.53;;;9.86;46.56
7111;BME280;3597;42.650;23.386;2024-03-25T11:13:31;95207.72;;;9.52;47.06
7111;BME280;3597;42.650;23.386;2024-03-25T11:15:58;95216.78;;;9.43;45.87
7111;BME280;3597;42.650;23.386;2024-03-25T11:18:25;95234.47;;;9.33;46.37
7111;BME280;3597;42.650;23.386;2024-03-25T11:21:04;95227.22;;;9.24;47.64
7111;BME280;3597;42.650;23.386;2024-03-25T11:23:44;95223.31;;;9.31;47.16
7111;BME280;3597;42.650;23.386;2024-03-25T11:26:20;95232.72;;;9.61;48.27
7111;BME280;3597;42.650;23.386;2024-03-25T11:28:46;95231.13;;;9.43;46.11
7111;BME280;3597;42.650;23.386;2024-03-25T11:31:12;95216.28;;;9.19;46.04
7111;BME280;3597;42.650;23.386;2024-03-25T11:33:40;95200.94;;;9.10;45.08
7111;BME280;3597;42.650;23.386;2024-03-25T11:36:07;95224.97;;;9.23;46.57
7111;BME280;3597;42.650;23.386;2024-03-25T11:38:32;95221.91;;;9.35;47.94
7111;BME280;3597;42.650;23.386;2024-03-25T11:40:58;95220.34;;;9.55;47.58
7111;BME280;3597;42.650;23.386;2024-03-25T11:43:24;95192.22;;;9.58;46.57
7111;BME280;3597;42.650;23.386;2024-03-25T11:45:50;95222.53;;;9.82;46.90
7111;BME280;3597;42.650;23.386;2024-03-25T11:48:16;95209.03;;;9.93;45.41
7111;BME280;3597;42.650;23.386;2024-03-25T11:50:45;95225.09;;;9.91;44.53
7111;BME280;3597;42.650;23.386;2024-03-25T11:53:13;95219.69;;;9.65;46.19
7111;BME280;3597;42.650;23.386;2024-03-25T11:55:40;95212.31;;;9.71;45.27
7111;BME280;3597;42.650;23.386;2024-03-25T11:58:06;95226.75;;;9.83;45.31
7111;BME280;3597;42.650;23.386;2024-03-25T12:00:32;95221.44;;;10.00;46.62
7111;BME280;3597;42.650;23.386;2024-03-25T12:02:58;95242.75;;;10.07;45.86
7111;BME280;3597;42.650;23.386;2024-03-25T12:05:24;95228.91;;;9.73;43.09
7111;BME280;3597;42.650;23.386;2024-03-25T12:07:50;95239.63;;;9.57;43.33
7111;BME280;3597;42.650;23.386;2024-03-25T12:10:16;95224.56;;;9.30;45.31
7111;BME280;3597;42.650;23.386;2024-03-25T12:13:01;95238.28;;;9.21;45.88
7111;BME280;3597;42.650;23.386;2024-03-25T12:15:26;95223.59;;;9.07;46.47
7111;BME280;3597;42.650;23.386;2024-03-25T12:17:52;95247.63;;;9.20;45.51
7111;BME280;3597;42.650;23.386;2024-03-25T12:20:18;95253.94;;;9.31;45.65
7111;BME280;3597;42.650;23.386;2024-03-25T12:22:44;95237.22;;;9.38;47.29
7111;BME280;3597;42.650;23.386;2024-03-25T12:25:10;95248.31;;;9.61;46.63
7111;BME280;3597;42.650;23.386;2024-03-25T12:27:37;95236.44;;;9.32;45.92
7111;BME280;3597;42.650;23.386;2024-03-25T12:30:08;95253.94;;;9.31;45.81
7111;BME280;3597;42.650;23.386;2024-03-25T12:32:37;95262.78;;;9.26;46.17
7111;BME280;3597;42.650;23.386;2024-03-25T12:35:09;95247.06;;;9.10;46.45
7111;BME280;3597;42.650;23.386;2024-03-25T12:37:43;95246.31;;;8.89;45.67
7111;BME280;3597;42.650;23.386;2024-03-25T12:40:11;95250.88;;;8.78;46.05
7111;BME280;3597;42.650;23.386;2024-03-25T12:42:37;95235.41;;;8.84;47.39
7111;BME280;3597;42.650;23.386;2024-03-25T12:45:04;95249.84;;;8.95;46.55
7111;BME280;3597;42.650;23.386;2024-03-25T12:47:30;95251.25;;;9.11;45.75
7111;BME280;3597;42.650;23.386;2024-03-25T12:49:59;95240.47;;;9.17;46.25
7111;BME280;3597;42.650;23.386;2024-03-25T12:52:25;95264.94;;;9.22;46.40
7111;BME280;3597;42.650;23.386;2024-03-25T12:54:51;95271.41;;;9.25;46.07
7111;BME280;3597;42.650;23.386;2024-03-25T12:57:16;95249.97;;;9.06;44.92
7111;BME280;3597;42.650;23.386;2024-03-25T12:59:43;95257.41;;;9.32;43.94
7111;BME280;3597;42.650;23.386;2024-03-25T13:02:11;95265.50;;;9.52;44.51
7111;BME280;3597;42.650;23.386;2024-03-25T13:04:38;95274.81;;;9.71;44.19
7111;BME280;3597;42.650;23.386;2024-03-25T13:07:05;95260.00;;;9.46;43.56
7111;BME280;3597;42.650;23.386;2024-03-25T13:09:30;95267.81;;;9.59;42.33
7111;BME280;3597;42.650;23.386;2024-03-25T13:11:57;95275.88;;;9.79;40.26
7111;BME280;3597;42.650;23.386;2024-03-25T13:14:22;95249.88;;;9.73;41.56
7111;BME280;3597;42.650;23.386;2024-03-25T13:16:48;95261.59;;;9.84;42.60
7111;BME280;3597;42.650;23.386;2024-03-25T13:19:14;95269.75;;;10.16;41.75